createdAt,value
2023-05-14T17:31:48.185Z,99563.66
2023-05-14T17:35:50.778Z,99559.00
2023-05-14T17:39:53.566Z,99563.31
2023-05-14T17:43:56.044Z,99565.44
2023-05-14T17:47:59.936Z,99560.31
2023-05-14T17:52:02.586Z,99566.13
2023-05-14T17:56:06.089Z,99563.31
2023-05-14T18:00:10.708Z,99570.16
2023-05-14T18:04:14.881Z,99576.53
2023-05-14T18:08:17.615Z,99572.38
2023-05-14T18:12:20.141Z,99577.53
2023-05-14T18:16:22.689Z,99572.19
2023-05-14T18:20:26.520Z,99575.84
2023-05-14T18:24:29.005Z,99580.63
2023-05-14T18:28:31.527Z,99577.59
2023-05-14T18:32:34.043Z,99586.69
2023-05-14T18:36:38.210Z,99591.38
2023-05-14T18:40:40.844Z,99590.31
2023-05-14T18:44:44.609Z,99598.00
2023-05-14T18:48:47.162Z,99601.09
2023-05-14T18:52:51.037Z,99597.28
2023-05-14T18:56:53.568Z,99602.34
2023-05-14T19:00:57.757Z,99601.94
2023-05-14T19:05:00.277Z,99601.25
2023-05-14T19:09:04.561Z,99612.56
2023-05-14T19:13:07.071Z,99603.91
2023-05-14T19:17:09.661Z,99607.59
2023-05-14T19:21:12.146Z,99608.59
2023-05-14T19:25:16.064Z,99601.22
2023-05-14T19:29:18.548Z,99606.84
2023-05-14T19:33:21.035Z,99610.59
2023-05-14T19:37:23.544Z,99612.91
2023-05-14T19:41:27.750Z,99615.69
2023-05-14T19:45:30.703Z,99610.34
2023-05-14T19:49:33.218Z,99611.19
2023-05-14T19:53:35.725Z,99615.88
2023-05-14T19:57:39.872Z,99606.84
2023-05-14T20:01:42.444Z,99619.84
2023-05-14T20:05:46.014Z,99614.63
2023-05-14T20:09:48.505Z,99619.13
2023-05-14T20:13:52.282Z,99615.91
2023-05-14T20:17:54.824Z,99608.63
2023-05-14T20:21:57.376Z,99603.66
2023-05-14T20:26:01.691Z,99604.56
2023-05-14T20:30:07.029Z,99599.22
2023-05-14T20:34:09.527Z,99601.13
2023-05-14T20:38:12.543Z,99590.06
2023-05-14T20:42:15.038Z,99593.66
2023-05-14T20:46:18.896Z,99585.84
2023-05-14T20:50:21.482Z,99584.69
2023-05-14T20:54:24.023Z,99581.19
2023-05-14T20:58:26.637Z,99587.63
